createdAt,value
2023-05-19T00:02:06.183Z,96053.50
2023-05-19T00:04:33.858Z,96055.50
2023-05-19T00:07:02.033Z,96053.25
2023-05-19T00:09:28.988Z,96045.50
2023-05-19T00:11:56.969Z,96042.66
2023-05-19T00:14:23.911Z,96037.13
2023-05-19T00:16:50.987Z,96034.81
2023-05-19T00:19:17.870Z,96036.31
2023-05-19T00:21:44.701Z,96034.03
2023-05-19T00:24:11.440Z,96023.06
2023-05-19T00:26:38.195Z,96020.66
2023-05-19T00:29:05.525Z,96023.19
2023-05-19T00:31:34.255Z,96024.44
2023-05-19T00:34:01.316Z,96025.72
2023-05-19T00:36:28.016Z,96016.09
2023-05-19T00:38:54.680Z,96023.31
2023-05-19T00:41:21.302Z,96022.53
2023-05-19T00:43:48.046Z,96012.72
2023-05-19T00:46:14.878Z,96011.78
2023-05-19T00:48:41.961Z,96013.03
2023-05-19T00:51:08.697Z,96013.00
2023-05-19T00:53:35.802Z,95998.75
2023-05-19T00:56:03.470Z,96006.69
2023-05-19T00:58:31.216Z,96006.09
2023-05-19T01:01:04.502Z,96004.94
2023-05-19T01:03:32.753Z,96000.44
2023-05-19T01:06:01.876Z,96006.81
2023-05-19T01:08:29.639Z,96001.94
2023-05-19T01:10:56.340Z,95997.84
2023-05-19T01:13:23.479Z,96007.13
2023-05-19T01:16:07.134Z,96009.47
2023-05-19T01:18:58.783Z,96011.75
2023-05-19T01:21:56.430Z,96013.31
2023-05-19T01:24:56.965Z,95996.81
2023-05-19T01:27:43.380Z,96007.97
2023-05-19T01:30:26.555Z,96006.06
2023-05-19T01:32:55.472Z,96000.84
2023-05-19T01:35:24.174Z,96010.06
2023-05-19T01:37:54.616Z,96017.25
2023-05-19T01:40:23.141Z,96016.97
2023-05-19T01:42:52.688Z,96015.63
2023-05-19T01:45:20.308Z,96011.38
2023-05-19T01:47:50.949Z,96010.25
2023-05-19T01:50:17.734Z,96019.16
2023-05-19T01:52:44.415Z,96015.97
2023-05-19T01:55:11.279Z,96019.09
2023-05-19T01:58:06.600Z,96021.47
2023-05-19T02:00:48.774Z,96014.66
2023-05-19T02:03:30.445Z,96017.88
2023-05-19T02:06:12.439Z,96018.28
2023-05-19T02:08:59.219Z,96010.97
2023-05-19T02:11:52.241Z,96009.06
2023-05-19T02:14:30.450Z,96001.50
2023-05-19T02:16:59.413Z,95994.63
2023-05-19T02:19:31.725Z,96003.25
2023-05-19T02:21:58.665Z,96003.34
2023-05-19T02:24:25.450Z,96004.31
2023-05-19T02:26:54.007Z,95991.09
2023-05-19T02:29:21.167Z,95996.38
2023-05-19T02:31:48.245Z,95994.16
2023-05-19T02:34:15.289Z,95983.75
2023-05-19T02:36:45.847Z,95996.75
2023-05-19T02:39:13.152Z,95997.78
2023-05-19T02:41:39.837Z,95989.72
2023-05-19T02:44:06.727Z,95970.56
2023-05-19T02:46:33.935Z,95982.44
2023-05-19T02:49:00.704Z,95985.63
2023-05-19T02:51:27.356Z,95986.75
2023-05-19T02:53:54.284Z,95985.84
2023-05-19T02:56:21.845Z,95973.22
2023-05-19T02:58:48.633Z,95980.97
2023-05-19T03:01:16.764Z,95982.78
2023-05-19T03:03:43.508Z,95980.66
2023-05-19T03:06:10.226Z,95982.03
2023-05-19T03:08:36.887Z,95965.69
2023-05-19T03:11:03.717Z,95972.38
2023-05-19T03:13:30.450Z,95973.38
2023-05-19T03:15:58.934Z,95980.25
2023-05-19T03:18:28.971Z,95976.47
2023-05-19T03:20:55.875Z,95970.69
2023-05-19T03:23:22.672Z,95963.34
2023-05-19T03:25:49.415Z,95971.19
2023-05-19T03:28:16.107Z,95973.72
2023-05-19T03:30:42.857Z,95981.16
2023-05-19T03:33:09.734Z,95983.16
2023-05-19T03:35:36.494Z,95984.59
2023-05-19T03:38:03.198Z,95987.63
2023-05-19T03:40:29.938Z,95983.41
2023-05-19T03:42:56.926Z,95971.41
2023-05-19T03:45:23.561Z,95976.97
2023-05-19T03:47:50.254Z,95967.03
2023-05-19T03:50:16.967Z,95966.72
2023-05-19T03:52:45.698Z,95976.97
2023-05-19T03:55:14.920Z,95970.84
2023-05-19T03:57:41.815Z,95984.72
2023-05-19T04:00:11.373Z,95968.91
2023-05-19T04:02:38.505Z,95971.91
2023-05-19T04:05:05.480Z,95975.41
2023-05-19T04:07:32.163Z,95982.00
2023-05-19T04:09:58.903Z,95975.34
2023-05-19T04:12:25.776Z,95972.69
2023-05-19T04:14:52.424Z,95972.97
2023-05-19T04:17:19.098Z,95959.31
2023-05-19T04:19:45.783Z,95969.22
2023-05-19T04:22:12.428Z,95974.66
2023-05-19T04:24:39.152Z,95977.06
2023-05-19T04:27:06.137Z,95973.44
2023-05-19T04:29:32.814Z,95970.56
2023-05-19T04:32:01.157Z,95977.63
2023-05-19T04:34:28.849Z,95976.97
2023-05-19T04:36:55.731Z,95983.84
2023-05-19T04:39:22.348Z,95993.09
2023-05-19T04:41:48.969Z,95986.84
2023-05-19T04:44:18.580Z,95986.88
2023-05-19T04:46:46.244Z,95981.34
2023-05-19T04:49:12.883Z,95979.94
2023-05-19T04:51:41.686Z,95981.97
2023-05-19T04:54:09.252Z,95973.41
2023-05-19T04:56:36.765Z,95982.03
2023-05-19T04:59:03.458Z,95971.47
2023-05-19T05:01:31.476Z,95974.19
2023-05-19T05:03:59.280Z,95971.66
2023-05-19T05:06:26.683Z,95958.38
2023-05-19T05:08:53.559Z,95957.09
2023-05-19T05:11:20.788Z,95956.00
2023-05-19T05:13:47.944Z,95961.53
2023-05-19T05:16:15.287Z,95975.81
2023-05-19T05:18:44.801Z,95955.78
2023-05-19T05:21:12.450Z,95968.53
2023-05-19T05:23:39.321Z,95960.25
2023-05-19T05:26:17.570Z,95965.75
2023-05-19T05:28:44.259Z,95957.59
2023-05-19T05:31:10.899Z,95962.59
2023-05-19T05:33:38.854Z,95956.09
2023-05-19T05:36:05.840Z,95945.56
2023-05-19T05:38:32.596Z,95960.50
2023-05-19T05:40:59.244Z,95954.16
2023-05-19T05:43:25.963Z,95960.06
2023-05-19T05:45:52.711Z,95961.69
2023-05-19T05:48:19.801Z,95968.69
2023-05-19T05:50:46.848Z,95963.03
2023-05-19T05:53:21.527Z,95961.94
2023-05-19T05:55:48.632Z,95968.00
2023-05-19T05:58:17.166Z,95964.38
2023-05-19T06:00:43.852Z,95964.81
2023-05-19T06:03:11.582Z,95981.03
2023-05-19T06:05:38.706Z,95969.22
2023-05-19T06:08:05.675Z,95973.13
2023-05-19T06:10:32.753Z,95970.41
2023-05-19T06:13:00.010Z,95968.41
2023-05-19T06:15:26.907Z,95971.75
2023-05-19T06:17:54.867Z,95964.03
2023-05-19T06:20:21.626Z,95973.66
2023-05-19T06:22:48.292Z,95958.78
2023-05-19T06:25:15.032Z,95954.75
2023-05-19T06:27:41.852Z,95959.28
2023-05-19T06:30:09.151Z,95959.78
2023-05-19T06:32:35.905Z,95962.44
2023-05-19T06:35:02.734Z,95965.34
2023-05-19T06:37:29.428Z,95965.94
2023-05-19T06:39:56.185Z,95962.16
2023-05-19T06:42:23.128Z,95965.06
2023-05-19T06:44:51.555Z,95961.03
2023-05-19T06:47:19.248Z,95971.19
2023-05-19T06:49:46.508Z,95955.34
2023-05-19T06:52:13.268Z,95959.34
2023-05-19T06:54:39.989Z,95956.22
2023-05-19T06:57:06.737Z,95951.56
2023-05-19T06:59:33.447Z,95964.84
2023-05-19T07:02:00.315Z,95965.34
2023-05-19T07:04:27.478Z,95962.97
2023-05-19T07:06:55.170Z,95968.63
2023-05-19T07:09:22.086Z,95954.22
2023-05-19T07:11:48.729Z,95948.59
2023-05-19T07:14:15.605Z,95950.28
2023-05-19T07:16:42.282Z,95956.97
2023-05-19T07:19:09.095Z,95942.09
2023-05-19T07:21:36.067Z,95950.91
2023-05-19T07:24:02.870Z,95944.78
2023-05-19T07:26:29.724Z,95953.38
2023-05-19T07:28:56.994Z,95959.84
2023-05-19T07:31:23.820Z,95944.09
2023-05-19T07:33:53.030Z,95944.88
2023-05-19T07:36:21.148Z,95942.22
2023-05-19T07:38:48.472Z,95952.06
2023-05-19T07:41:15.133Z,95956.31
2023-05-19T07:43:42.984Z,95948.88
2023-05-19T07:46:09.622Z,95946.81
2023-05-19T07:48:36.928Z,95958.81
2023-05-19T07:51:04.007Z,95967.31
2023-05-19T07:53:30.760Z,95954.78
2023-05-19T07:55:58.623Z,95954.03
2023-05-19T07:58:25.666Z,95949.81
2023-05-19T08:00:53.445Z,95954.03
2023-05-19T08:03:21.043Z,95943.97
2023-05-19T08:05:48.073Z,95945.84
2023-05-19T08:08:16.962Z,95959.44
2023-05-19T08:10:43.696Z,95941.84
2023-05-19T08:13:10.624Z,95945.59
2023-05-19T08:15:37.435Z,95937.34
2023-05-19T08:18:05.495Z,95948.25
2023-05-19T08:20:33.131Z,95937.88
2023-05-19T08:23:00.142Z,95937.28
2023-05-19T08:25:26.752Z,95948.50
2023-05-19T08:27:53.593Z,95940.00
2023-05-19T08:30:20.345Z,95947.22
2023-05-19T08:32:48.884Z,95948.00
2023-05-19T08:35:15.878Z,95951.19
2023-05-19T08:37:42.525Z,95941.09
2023-05-19T08:40:16.137Z,95926.72
2023-05-19T08:42:43.039Z,95941.63
2023-05-19T08:45:10.251Z,95934.97
2023-05-19T08:47:37.372Z,95940.56
2023-05-19T08:50:07.974Z,95936.28
2023-05-19T08:52:53.610Z,95941.91
2023-05-19T08:55:34.621Z,95949.59
2023-05-19T08:58:03.542Z,95938.97
2023-05-19T09:00:30.673Z,95939.22
2023-05-19T09:03:06.111Z,95930.69
2023-05-19T09:05:44.067Z,95929.34
2023-05-19T09:08:11.139Z,95930.69
2023-05-19T09:10:37.769Z,95940.56
2023-05-19T09:13:05.550Z,95933.66
2023-05-19T09:15:34.409Z,95935.22
2023-05-19T09:18:13.496Z,95926.72
2023-05-19T09:20:41.010Z,95935.75
2023-05-19T09:23:08.453Z,95938.97
2023-05-19T09:25:35.458Z,95923.50
2023-05-19T09:28:02.374Z,95914.19
2023-05-19T09:30:29.083Z,95921.91
2023-05-19T09:32:56.012Z,95924.84
2023-05-19T09:35:22.738Z,95913.94
2023-05-19T09:37:49.383Z,95928.59
2023-05-19T09:40:16.570Z,95928.84
2023-05-19T09:42:44.438Z,95920.84
2023-05-19T09:45:11.711Z,95918.97
2023-05-19T09:47:41.320Z,95928.31
2023-05-19T09:50:10.695Z,95919.53
2023-05-19T09:52:43.854Z,95919.78
2023-05-19T09:55:12.996Z,95919.25
2023-05-19T09:57:41.027Z,95911.78
2023-05-19T10:00:12.599Z,95912.59
2023-05-19T10:02:46.323Z,95909.69
2023-05-19T10:05:20.729Z,95911.50
2023-05-19T10:07:51.637Z,95907.78
2023-05-19T10:10:21.042Z,95918.94
2023-05-19T10:12:49.009Z,95906.69
2023-05-19T10:15:17.124Z,95919.22
2023-05-19T10:17:45.112Z,95913.91
2023-05-19T10:20:14.401Z,95905.63
2023-05-19T10:22:43.002Z,95903.22
2023-05-19T10:25:11.526Z,95907.47
2023-05-19T10:27:44.274Z,95901.34
2023-05-19T10:30:16.480Z,95897.03
2023-05-19T10:32:46.904Z,95900.97
2023-05-19T10:35:54.645Z,95898.25
2023-05-19T10:38:33.715Z,95893.50
2023-05-19T10:41:14.077Z,95891.66
2023-05-19T10:43:59.976Z,95894.03
2023-05-19T10:46:27.465Z,95898.28
2023-05-19T10:48:54.667Z,95896.69
2023-05-19T10:51:21.836Z,95893.25
2023-05-19T10:53:50.341Z,95902.91
2023-05-19T10:56:35.099Z,95905.88
2023-05-19T10:59:03.564Z,95906.09
2023-05-19T11:01:41.853Z,95894.13
2023-05-19T11:04:14.118Z,95894.38
2023-05-19T11:06:41.434Z,95886.88
2023-05-19T11:09:16.070Z,95884.91
2023-05-19T11:11:53.365Z,95881.66
2023-05-19T11:14:23.315Z,95889.69
2023-05-19T11:16:52.434Z,95888.31
2023-05-19T11:19:28.736Z,95890.28
2023-05-19T11:21:57.574Z,95879.41
2023-05-19T11:24:34.357Z,95878.88
2023-05-19T11:27:18.657Z,95881.28
2023-05-19T11:29:45.635Z,95882.66
2023-05-19T11:32:13.169Z,95879.38
2023-05-19T11:34:40.638Z,95883.94
2023-05-19T11:37:07.877Z,95883.41
2023-05-19T11:39:35.352Z,95886.31
2023-05-19T11:42:02.286Z,95888.44
2023-05-19T11:44:28.918Z,95888.91
2023-05-19T11:46:55.797Z,95892.63
2023-05-19T11:49:22.617Z,95897.53
2023-05-19T11:51:49.419Z,95890.41
2023-05-19T11:54:16.266Z,95902.66
2023-05-19T11:56:43.200Z,95897.59
2023-05-19T11:59:10.188Z,95889.03
2023-05-19T12:01:37.159Z,95892.22
2023-05-19T12:04:09.371Z,95890.66
2023-05-19T12:06:37.320Z,95887.97
2023-05-19T12:09:05.680Z,95886.31
2023-05-19T12:11:32.358Z,95892.22
2023-05-19T12:13:59.342Z,95889.81
2023-05-19T12:16:33.835Z,95884.53
2023-05-19T12:19:00.794Z,95895.97
2023-05-19T12:21:33.911Z,95894.09
2023-05-19T12:24:02.176Z,95891.97
2023-05-19T12:26:29.048Z,95894.06
2023-05-19T12:28:55.806Z,95889.00
2023-05-19T12:31:25.697Z,95889.81
2023-05-19T12:33:52.486Z,95889.28
2023-05-19T12:36:19.442Z,95890.53
2023-05-19T12:38:47.887Z,95886.44
2023-05-19T12:41:14.940Z,95878.63
2023-05-19T12:43:41.651Z,95873.47
2023-05-19T12:46:16.468Z,95881.94
2023-05-19T12:48:44.563Z,95876.28
2023-05-19T12:51:16.256Z,95870.72
2023-05-19T12:53:42.984Z,95870.66
2023-05-19T12:56:14.683Z,95876.69
2023-05-19T12:58:46.128Z,95862.72
2023-05-19T13:01:17.710Z,95864.81
2023-05-19T13:03:45.045Z,95870.72
2023-05-19T13:06:12.205Z,95858.16
2023-05-19T13:08:41.936Z,95868.44
2023-05-19T13:11:08.553Z,95869.78
2023-05-19T13:13:35.295Z,95868.63
2023-05-19T13:16:01.945Z,95867.59
2023-05-19T13:18:32.246Z,95860.34
2023-05-19T13:20:58.913Z,95865.19
2023-05-19T13:23:26.463Z,95847.09
2023-05-19T13:25:53.298Z,95852.44
2023-05-19T13:28:20.048Z,95852.53
2023-05-19T13:30:46.945Z,95848.78
2023-05-19T13:33:13.799Z,95845.03
2023-05-19T13:35:40.510Z,95840.16
2023-05-19T13:38:10.306Z,95851.78
2023-05-19T13:40:37.833Z,95842.88
2023-05-19T13:43:05.377Z,95844.09
2023-05-19T13:45:32.332Z,95845.41
2023-05-19T13:47:59.271Z,95844.72
2023-05-19T13:50:26.059Z,95840.25
2023-05-19T13:52:52.761Z,95842.81
2023-05-19T13:55:19.684Z,95847.63
2023-05-19T13:57:46.360Z,95859.19
2023-05-19T14:00:13.431Z,95851.72
2023-05-19T14:02:40.795Z,95847.09
2023-05-19T14:05:10.940Z,95858.63
2023-05-19T14:07:37.632Z,95843.56
2023-05-19T14:10:06.573Z,95845.78
2023-05-19T14:12:46.994Z,95846.25
2023-05-19T14:15:19.348Z,95846.84
2023-05-19T14:17:46.490Z,95838.38
2023-05-19T14:20:13.313Z,95838.78
2023-05-19T14:22:40.057Z,95822.53
2023-05-19T14:25:07.403Z,95836.97
2023-05-19T14:27:34.203Z,95827.56
2023-05-19T14:30:00.904Z,95817.72
2023-05-19T14:32:30.101Z,95820.19
2023-05-19T14:34:57.142Z,95826.16
2023-05-19T14:37:24.351Z,95824.63
2023-05-19T14:39:51.135Z,95808.66
2023-05-19T14:42:17.816Z,95837.03
2023-05-19T14:44:44.607Z,95826.47
2023-05-19T14:47:12.624Z,95843.16
2023-05-19T14:49:39.415Z,95829.75
2023-05-19T14:52:06.365Z,95832.31
2023-05-19T14:54:34.013Z,95836.09
2023-05-19T14:57:01.733Z,95837.47
2023-05-19T14:59:29.732Z,95830.25
2023-05-19T15:01:56.496Z,95822.38
2023-05-19T15:04:23.407Z,95819.28
2023-05-19T15:06:58.187Z,95823.13
2023-05-19T15:09:32.329Z,95823.09
2023-05-19T15:12:01.385Z,95818.03
2023-05-19T15:14:30.561Z,95809.63
2023-05-19T15:16:58.173Z,95812.41
2023-05-19T15:19:25.143Z,95796.56
2023-05-19T15:21:51.931Z,95801.63
2023-05-19T15:24:19.415Z,95801.13
2023-05-19T15:26:46.129Z,95790.91
2023-05-19T15:29:12.971Z,95797.09
2023-05-19T15:31:39.870Z,95798.03
2023-05-19T15:34:06.683Z,95800.72
2023-05-19T15:36:33.285Z,95797.59
2023-05-19T15:39:00.001Z,95786.75
2023-05-19T15:41:26.910Z,95799.09
2023-05-19T15:43:53.823Z,95793.44
2023-05-19T15:46:20.739Z,95790.47
2023-05-19T15:48:47.540Z,95793.78
2023-05-19T15:51:14.321Z,95785.59
2023-05-19T15:53:41.053Z,95786.69
2023-05-19T15:56:07.767Z,95774.59
2023-05-19T15:58:34.467Z,95795.34
2023-05-19T16:01:01.423Z,95786.88
2023-05-19T16:03:28.238Z,95769.88
2023-05-19T16:05:55.051Z,95769.50
2023-05-19T16:08:21.729Z,95736.00
2023-05-19T16:10:48.560Z,95767.50
2023-05-19T16:13:15.249Z,95773.84
2023-05-19T16:15:42.082Z,95763.00
2023-05-19T16:18:08.856Z,95752.06
2023-05-19T16:20:35.680Z,95751.19
2023-05-19T16:23:03.317Z,95749.09
2023-05-19T16:25:30.290Z,95747.06
2023-05-19T16:27:57.583Z,95747.88
2023-05-19T16:30:26.525Z,95738.09
2023-05-19T16:32:55.979Z,95739.34
2023-05-19T16:35:23.925Z,95742.50
2023-05-19T16:37:50.625Z,95728.38
2023-05-19T16:40:17.384Z,95727.22
2023-05-19T16:42:44.074Z,95733.94
2023-05-19T16:45:10.972Z,95732.28
2023-05-19T16:47:37.774Z,95724.97
2023-05-19T16:50:04.678Z,95729.31
2023-05-19T16:52:31.456Z,95725.69
2023-05-19T16:54:58.125Z,95732.16
2023-05-19T16:57:24.832Z,95729.25
2023-05-19T16:59:51.760Z,95718.47
2023-05-19T17:02:18.783Z,95713.63
2023-05-19T17:04:45.528Z,95716.69
2023-05-19T17:07:15.889Z,95718.78
2023-05-19T17:09:43.611Z,95707.34
2023-05-19T17:12:11.105Z,95721.53
2023-05-19T17:14:37.880Z,95714.38
2023-05-19T17:17:05.041Z,95717.16
2023-05-19T17:19:31.958Z,95715.66
2023-05-19T17:21:58.788Z,95715.22
2023-05-19T17:24:25.904Z,95721.75
2023-05-19T17:26:52.710Z,95713.00
2023-05-19T17:29:19.352Z,95707.97
2023-05-19T17:31:46.187Z,95712.19
2023-05-19T17:34:12.904Z,95713.03
2023-05-19T17:36:39.536Z,95709.50
2023-05-19T17:39:06.239Z,95693.28
2023-05-19T17:41:33.032Z,95704.72
2023-05-19T17:43:59.713Z,95696.78
2023-05-19T17:46:26.569Z,95704.81
2023-05-19T17:48:53.244Z,95700.81
2023-05-19T17:51:20.168Z,95707.25
2023-05-19T17:53:47.099Z,95696.63
2023-05-19T17:56:14.303Z,95700.13
2023-05-19T17:58:41.622Z,95703.38
2023-05-19T18:01:08.843Z,95701.19
2023-05-19T18:03:38.433Z,95700.13
2023-05-19T18:06:05.692Z,95694.81
2023-05-19T18:08:32.652Z,95696.31
2023-05-19T18:11:00.399Z,95708.19
2023-05-19T18:13:27.044Z,95696.66
2023-05-19T18:15:53.990Z,95697.38
2023-05-19T18:18:20.671Z,95692.03
2023-05-19T18:20:48.498Z,95706.69
2023-05-19T18:23:15.184Z,95691.53
2023-05-19T18:25:48.524Z,95698.41
2023-05-19T18:28:15.133Z,95693.91
2023-05-19T18:30:42.195Z,95683.38
2023-05-19T18:33:09.005Z,95705.47
2023-05-19T18:35:36.767Z,95701.91
2023-05-19T18:38:03.435Z,95697.88
2023-05-19T18:40:30.085Z,95708.94
2023-05-19T18:42:56.694Z,95696.28
2023-05-19T18:45:23.297Z,95704.81
2023-05-19T18:47:50.008Z,95701.13
2023-05-19T18:50:16.727Z,95688.19
2023-05-19T18:52:43.331Z,95699.88
2023-05-19T18:55:10.199Z,95700.44
2023-05-19T18:57:36.957Z,95700.75
2023-05-19T19:00:04.466Z,95700.81
2023-05-19T19:02:31.445Z,95703.44
2023-05-19T19:04:58.556Z,95718.78
2023-05-19T19:07:27.152Z,95710.28
2023-05-19T19:09:54.563Z,95707.59
2023-05-19T19:12:21.363Z,95685.56
2023-05-19T19:14:48.343Z,95706.22
2023-05-19T19:17:15.425Z,95705.13
2023-05-19T19:19:42.394Z,95703.06
2023-05-19T19:22:09.272Z,95674.44
2023-05-19T19:24:36.029Z,95716.97
2023-05-19T19:27:02.908Z,95719.56
2023-05-19T19:29:29.699Z,95719.91
2023-05-19T19:31:56.544Z,95722.13
2023-05-19T19:34:23.318Z,95715.25
2023-05-19T19:36:50.032Z,95713.56
2023-05-19T19:39:16.986Z,95682.72
2023-05-19T19:41:43.864Z,95701.47
2023-05-19T19:44:10.590Z,95700.00
2023-05-19T19:46:37.358Z,95715.38
2023-05-19T19:49:04.109Z,95704.81
2023-05-19T19:51:31.759Z,95710.94
2023-05-19T19:53:58.848Z,95704.38
2023-05-19T19:56:27.687Z,95714.09
2023-05-19T19:58:56.892Z,95722.56
2023-05-19T20:01:27.964Z,95692.53
2023-05-19T20:03:56.136Z,95707.63
2023-05-19T20:06:23.314Z,95694.72
2023-05-19T20:08:50.115Z,95712.28
2023-05-19T20:11:16.875Z,95706.53
2023-05-19T20:13:43.586Z,95710.94
2023-05-19T20:16:10.402Z,95707.00
2023-05-19T20:18:37.196Z,95714.66
2023-05-19T20:21:03.947Z,95707.28
2023-05-19T20:23:30.658Z,95691.47
2023-05-19T20:26:10.884Z,95709.81
2023-05-19T20:28:38.962Z,95705.34
2023-05-19T20:31:06.534Z,95702.16
2023-05-19T20:33:33.172Z,95705.72
2023-05-19T20:35:59.953Z,95687.94
2023-05-19T20:38:26.725Z,95704.13
2023-05-19T20:40:54.868Z,95695.66
2023-05-19T20:43:21.689Z,95693.78
2023-05-19T20:45:48.548Z,95695.94
2023-05-19T20:48:16.104Z,95697.00
2023-05-19T20:50:42.996Z,95692.22
2023-05-19T20:53:09.747Z,95699.41
2023-05-19T20:55:36.404Z,95685.59
2023-05-19T20:58:03.153Z,95688.00
2023-05-19T21:00:30.749Z,95683.22
2023-05-19T21:02:57.879Z,95675.00
2023-05-19T21:05:24.900Z,95698.34
2023-05-19T21:07:51.611Z,95684.75
2023-05-19T21:10:18.518Z,95673.59
2023-05-19T21:12:45.211Z,95682.09
2023-05-19T21:15:14.972Z,95691.09
2023-05-19T21:17:41.813Z,95686.31
2023-05-19T21:20:09.218Z,95690.56
2023-05-19T21:22:36.136Z,95684.50
2023-05-19T21:25:02.916Z,95690.16
2023-05-19T21:27:30.018Z,95695.22
2023-05-19T21:29:56.770Z,95692.91
2023-05-19T21:32:23.510Z,95684.88
2023-05-19T21:34:50.405Z,95688.84
2023-05-19T21:37:17.785Z,95689.63
2023-05-19T21:39:44.927Z,95689.94
2023-05-19T21:42:11.820Z,95685.44
2023-05-19T21:44:38.580Z,95673.66
2023-05-19T21:47:05.321Z,95681.44
2023-05-19T21:49:31.980Z,95668.31
2023-05-19T21:51:58.758Z,95672.59
2023-05-19T21:54:25.518Z,95674.44
2023-05-19T21:56:52.235Z,95666.19
2023-05-19T21:59:19.687Z,95676.94
2023-05-19T22:01:46.913Z,95678.41
2023-05-19T22:04:16.467Z,95636.25
2023-05-19T22:06:43.320Z,95663.81
2023-05-19T22:09:10.422Z,95659.91
2023-05-19T22:11:37.110Z,95666.59
2023-05-19T22:14:03.793Z,95672.97
2023-05-19T22:16:31.253Z,95659.69
2023-05-19T22:18:58.182Z,95664.69
2023-05-19T22:21:25.070Z,95664.69
2023-05-19T22:23:52.468Z,95676.00
2023-05-19T22:26:19.174Z,95685.38
2023-05-19T22:28:45.879Z,95673.53
2023-05-19T22:31:12.615Z,95673.88
2023-05-19T22:33:39.269Z,95659.59
2023-05-19T22:36:06.667Z,95665.25
2023-05-19T22:38:33.307Z,95665.31
2023-05-19T22:41:00.015Z,95664.81
2023-05-19T22:43:26.636Z,95663.03
2023-05-19T22:45:53.405Z,95656.72
2023-05-19T22:48:20.041Z,95659.09
2023-05-19T22:50:46.804Z,95651.47
2023-05-19T22:53:13.443Z,95648.53
2023-05-19T22:55:40.209Z,95608.31
2023-05-19T22:58:06.887Z,95621.25
2023-05-19T23:00:33.540Z,95643.81
2023-05-19T23:03:00.325Z,95643.53
2023-05-19T23:05:27.094Z,95646.31
2023-05-19T23:07:53.811Z,95639.31
2023-05-19T23:10:20.615Z,95630.56
2023-05-19T23:12:47.333Z,95635.75
2023-05-19T23:15:14.036Z,95631.25
2023-05-19T23:17:40.676Z,95639.38
2023-05-19T23:20:08.138Z,95646.59
2023-05-19T23:22:34.781Z,95631.09
2023-05-19T23:25:05.806Z,95638.25
2023-05-19T23:27:32.465Z,95634.69
2023-05-19T23:29:59.118Z,95641.69
2023-05-19T23:32:25.840Z,95628.91
2023-05-19T23:34:52.545Z,95633.31
2023-05-19T23:37:19.219Z,95626.88
2023-05-19T23:39:45.881Z,95623.97
2023-05-19T23:42:13.305Z,95624.09
2023-05-19T23:44:40.031Z,95627.75
2023-05-19T23:47:07.073Z,95601.38
2023-05-19T23:49:34.015Z,95608.13
2023-05-19T23:52:00.691Z,95616.38
2023-05-19T23:54:27.435Z,95620.91
2023-05-19T23:56:55.923Z,95618.06
2023-05-19T23:59:22.783Z,95617.97
